Pelagia — PGRQ — position and weather

sailwx.info

Track history (hours):
 
Tides and Currents Weather Stations Pressure Air Temp Water Temp Dewpoint Dewpoint Depression Visibility Wind Speed Wind Dir Waves Ship Positions

Oceanographic research ship Pelagia (Netherlands)

Detailed information on ship capabilities available from University of Delaware's Ocean Information Center and ARCUS's ALIAS (Arctic Logistics Information and Support) project.

Last reported at 2015-Aug-29 04:06 UTC. Time now 2015-Aug-31 17:52 UTC.
Position N 40°52' E 028°55'.

Length 66 m; beam 13 m.

Type: Other ship. MMSI: 244925000.

Date/timePositionNaut miles runAvg speedWind from/ knotsBaromVisibWave heightAir tempDewpointWater temp
2015-Aug-29 04:06N 40°52' E 028°55'6 5.8
2015-Aug-29 03:09N 40°50' E 028°48'532.4
2015-Aug-29 03:00N 40°48' E 028°42'230 6.7 070 / 121019.210.8 0.5
2015-Aug-27 16:33N 37°52' E 025°30'8 7.9
2015-Aug-27 15:33N 37°45' E 025°27'8 8.2
2015-Aug-27 14:33N 37°37' E 025°24'8 8.4
2015-Aug-27 13:33N 37°31' E 025°17'9 8.8
2015-Aug-27 12:33N 37°26' E 025°08'8 8.4
2015-Aug-27 11:33N 37°21' E 024°59'9 9.0
2015-Aug-27 10:33N 37°16' E 024°50'67 8.9
2015-Aug-27 03:00N 36°36' E 023°42'103 8.6 010 / 311012.810.8 1.5
2015-Aug-26 15:00N 36°00' E 021°42'213 6.4 290 / 101014.210.8 0.5
2015-Aug-25 05:31N 35°11' E 017°27'12 9.6
2015-Aug-25 04:14N 35°15' E 017°14'7 9.8
2015-Aug-25 03:33N 35°18' E 017°06'1017.5
2015-Aug-25 03:00N 35°18' E 016°54'11 7.9 270 / 51016.210.8 0.5
2015-Aug-25 01:33N 35°26' E 016°44'10 9.7
2015-Aug-25 00:33N 35°29' E 016°32'10 9.7
2015-Aug-24 23:33N 35°33' E 016°22'10 9.7
2015-Aug-24 22:33N 35°37' E 016°11'10 9.7
2015-Aug-24 21:33N 35°40' E 015°60'10 9.9
2015-Aug-24 20:33N 35°45' E 015°49'1010.0
2015-Aug-24 19:33N 35°49' E 015°37'1010.0
2015-Aug-24 18:33N 35°53' E 015°26'1010.0
2015-Aug-24 17:33N 35°57' E 015°15'1010.0
2015-Aug-24 16:33N 36°01' E 015°03'10 9.8
2015-Aug-24 15:33N 36°05' E 014°52'814.8
2015-Aug-24 15:00N 36°06' E 014°42'3 5.7 170 / 91016.610.8 0.5
2015-Aug-24 14:33N 36°09' E 014°42'9 9.3
2015-Aug-24 13:33N 36°12' E 014°31'9 9.4
2015-Aug-24 12:33N 36°16' E 014°20'9 9.4
2015-Aug-24 11:33N 36°19' E 014°10'10 9.6
2015-Aug-24 10:33N 36°23' E 013°58'10 9.5
2015-Aug-24 09:32N 36°26' E 013°47'10 9.8
2015-Aug-24 08:33N 36°31' E 013°36'10 9.8
2015-Aug-24 07:33N 36°35' E 013°26'1010.0
2015-Aug-24 06:33N 36°39' E 013°14'1010.0
2015-Aug-24 05:33N 36°43' E 013°02'1010.0
2015-Aug-24 04:33N 36°46' E 012°51'1010.4
2015-Aug-24 03:33N 36°50' E 012°39'1010.5
2015-Aug-24 02:33N 36°53' E 012°26'1010.3
2015-Aug-24 01:33N 36°57' E 012°15'1010.0
2015-Aug-24 00:33N 37°02' E 012°03'1010.0
2015-Aug-23 23:33N 37°06' E 011°52'10 9.9
2015-Aug-23 22:33N 37°10' E 011°41'10 9.8
2015-Aug-23 21:33N 37°15' E 011°30'42 9.5
2015-Aug-23 17:10N 37°29' E 010°40'6 9.4
2015-Aug-23 16:33N 37°30' E 010°33'1710.7
2015-Aug-23 15:00N 37°30' E 010°12'10510.0 120 / 161011.310.8 1.027.3 27.2
2015-Aug-23 04:27N 37°18' E 008°01'2210.3
2015-Aug-23 02:18N 37°17' E 007°33'76 9.7
2015-Aug-22 18:25N 37°12' E 005°57'8 8.8
2015-Aug-22 17:33N 37°11' E 005°47'24 9.4
2015-Aug-22 15:00N 37°06' E 005°18'25 9.5 050 / 241011.810.8 1.526.3 26.3
2015-Aug-22 12:23N 37°08' E 004°47'8 9.7
2015-Aug-22 11:32N 37°07' E 004°37'59 9.7
2015-Aug-22 05:26N 37°03' E 003°23'8 9.3
2015-Aug-22 04:33N 37°02' E 003°12'9 9.0
2015-Aug-22 03:32N 36°60' E 003°01'815.2
2015-Aug-22 03:00N 36°54' E 002°54'511.6 090 / 221014.110.8 1.524.6 24.5
2015-Aug-22 02:33N 36°58' E 002°51'9 8.4
2015-Aug-22 01:33N 36°57' E 002°40'8 8.2
2015-Aug-22 00:33N 36°56' E 002°30'18 8.5
2015-Aug-21 22:28N 36°54' E 002°08'9 8.5
2015-Aug-21 21:27N 36°52' E 001°57'8 8.4
2015-Aug-21 20:32N 36°51' E 001°48'8 8.0
2015-Aug-21 19:33N 36°51' E 001°38'8 7.9
2015-Aug-21 18:33N 36°50' E 001°28'9 8.5
2015-Aug-21 17:33N 36°48' E 001°18'10 9.1
2015-Aug-21 16:30N 36°46' E 001°06'9 9.3
2015-Aug-21 15:29N 36°44' E 000°54'1020.6
2015-Aug-21 15:00N 36°42' E 000°42'1 2.8 080 / 161017.010.8 1.525.1 23.4
2015-Aug-21 14:33N 36°42' E 000°43'10 9.6
2015-Aug-21 13:33N 36°41' E 000°32'9 9.2
2015-Aug-21 12:33N 36°39' E 000°20'9 9.1
2015-Aug-21 11:33N 36°37' E 000°09'18 8.9
2015-Aug-21 09:32N 36°33' W 000°12'8 8.1
2015-Aug-21 08:33N 36°31' W 000°22'12 8.3
2015-Aug-21 07:07N 36°29' W 000°36'7 8.3
2015-Aug-21 06:17N 36°28' W 000°45'27 8.2
2015-Aug-21 03:00N 36°24' W 001°18'94 7.8 050 / 161018.510.8 1.526.4 27.1
2015-Aug-20 15:00N 36°06' W 003°12'83 9.2 080 / 101018.110.8 1.524.8 21.1
2015-Aug-20 06:00N 36°00' W 004°54'88 5.8 080 / 91018.510.8 1.023.0 22.4
2015-Aug-19 15:00N 35°54' W 006°42'715.4 290 / 101015.510.8 1.023.0 21.5
2015-Aug-19 14:32N 35°59' W 006°47'46 7.7
2015-Aug-19 08:33N 36°08' W 007°43'8 7.8
2015-Aug-19 07:33N 36°09' W 007°53'8 7.5
2015-Aug-19 06:32N 36°11' W 008°02'  
Track history (hours):
 
Tides and Currents Weather Stations Pressure Air Temp Water Temp Dewpoint Dewpoint Depression Visibility Wind Speed Wind Dir Waves Ship Positions

Oceanographic research ship Pelagia (Netherlands)

Detailed information on ship capabilities available from University of Delaware's Ocean Information Center and ARCUS's ALIAS (Arctic Logistics Information and Support) project.

Last reported at 2015-Aug-29 04:06 UTC. Time now 2015-Aug-31 17:52 UTC.
Position N 40°52' E 028°55'.

Length 66 m; beam 13 m.

Type: Other ship. MMSI: 244925000.

Date/timePositionNaut miles runAvg speedWind from/ knotsBaromVisibWave heightAir tempDewpointWater temp
2015-Aug-29 04:06N 40°52' E 028°55'6 5.8
2015-Aug-29 03:09N 40°50' E 028°48'532.4
2015-Aug-29 03:00N 40°48' E 028°42'230 6.7 070 / 121019.210.8 0.5
2015-Aug-27 16:33N 37°52' E 025°30'8 7.9
2015-Aug-27 15:33N 37°45' E 025°27'8 8.2
2015-Aug-27 14:33N 37°37' E 025°24'8 8.4
2015-Aug-27 13:33N 37°31' E 025°17'9 8.8
2015-Aug-27 12:33N 37°26' E 025°08'8 8.4
2015-Aug-27 11:33N 37°21' E 024°59'9 9.0
2015-Aug-27 10:33N 37°16' E 024°50'67 8.9
2015-Aug-27 03:00N 36°36' E 023°42'103 8.6 010 / 311012.810.8 1.5
2015-Aug-26 15:00N 36°00' E 021°42'213 6.4 290 / 101014.210.8 0.5
2015-Aug-25 05:31N 35°11' E 017°27'12 9.6
2015-Aug-25 04:14N 35°15' E 017°14'7 9.8
2015-Aug-25 03:33N 35°18' E 017°06'1017.5
2015-Aug-25 03:00N 35°18' E 016°54'11 7.9 270 / 51016.210.8 0.5
2015-Aug-25 01:33N 35°26' E 016°44'10 9.7
2015-Aug-25 00:33N 35°29' E 016°32'10 9.7
2015-Aug-24 23:33N 35°33' E 016°22'10 9.7
2015-Aug-24 22:33N 35°37' E 016°11'10 9.7
2015-Aug-24 21:33N 35°40' E 015°60'10 9.9
2015-Aug-24 20:33N 35°45' E 015°49'1010.0
2015-Aug-24 19:33N 35°49' E 015°37'1010.0
2015-Aug-24 18:33N 35°53' E 015°26'1010.0
2015-Aug-24 17:33N 35°57' E 015°15'1010.0
2015-Aug-24 16:33N 36°01' E 015°03'10 9.8
2015-Aug-24 15:33N 36°05' E 014°52'814.8
2015-Aug-24 15:00N 36°06' E 014°42'3 5.7 170 / 91016.610.8 0.5
2015-Aug-24 14:33N 36°09' E 014°42'9 9.3
2015-Aug-24 13:33N 36°12' E 014°31'9 9.4
2015-Aug-24 12:33N 36°16' E 014°20'9 9.4
2015-Aug-24 11:33N 36°19' E 014°10'10 9.6
2015-Aug-24 10:33N 36°23' E 013°58'10 9.5
2015-Aug-24 09:32N 36°26' E 013°47'10 9.8
2015-Aug-24 08:33N 36°31' E 013°36'10 9.8
2015-Aug-24 07:33N 36°35' E 013°26'1010.0
2015-Aug-24 06:33N 36°39' E 013°14'1010.0
2015-Aug-24 05:33N 36°43' E 013°02'1010.0
2015-Aug-24 04:33N 36°46' E 012°51'1010.4
2015-Aug-24 03:33N 36°50' E 012°39'1010.5
2015-Aug-24 02:33N 36°53' E 012°26'1010.3
2015-Aug-24 01:33N 36°57' E 012°15'1010.0
2015-Aug-24 00:33N 37°02' E 012°03'1010.0
2015-Aug-23 23:33N 37°06' E 011°52'10 9.9
2015-Aug-23 22:33N 37°10' E 011°41'10 9.8
2015-Aug-23 21:33N 37°15' E 011°30'42 9.5
2015-Aug-23 17:10N 37°29' E 010°40'6 9.4
2015-Aug-23 16:33N 37°30' E 010°33'1710.7
2015-Aug-23 15:00N 37°30' E 010°12'10510.0 120 / 161011.310.8 1.027.3 27.2
2015-Aug-23 04:27N 37°18' E 008°01'2210.3
2015-Aug-23 02:18N 37°17' E 007°33'76 9.7
2015-Aug-22 18:25N 37°12' E 005°57'8 8.8
2015-Aug-22 17:33N 37°11' E 005°47'24 9.4
2015-Aug-22 15:00N 37°06' E 005°18'25 9.5 050 / 241011.810.8 1.526.3 26.3
2015-Aug-22 12:23N 37°08' E 004°47'8 9.7
2015-Aug-22 11:32N 37°07' E 004°37'59 9.7
2015-Aug-22 05:26N 37°03' E 003°23'8 9.3
2015-Aug-22 04:33N 37°02' E 003°12'9 9.0
2015-Aug-22 03:32N 36°60' E 003°01'815.2
2015-Aug-22 03:00N 36°54' E 002°54'511.6 090 / 221014.110.8 1.524.6 24.5
2015-Aug-22 02:33N 36°58' E 002°51'9 8.4
2015-Aug-22 01:33N 36°57' E 002°40'8 8.2
2015-Aug-22 00:33N 36°56' E 002°30'18 8.5
2015-Aug-21 22:28N 36°54' E 002°08'9 8.5
2015-Aug-21 21:27N 36°52' E 001°57'8 8.4
2015-Aug-21 20:32N 36°51' E 001°48'8 8.0
2015-Aug-21 19:33N 36°51' E 001°38'8 7.9
2015-Aug-21 18:33N 36°50' E 001°28'9 8.5
2015-Aug-21 17:33N 36°48' E 001°18'10 9.1
2015-Aug-21 16:30N 36°46' E 001°06'9 9.3
2015-Aug-21 15:29N 36°44' E 000°54'1020.6
2015-Aug-21 15:00N 36°42' E 000°42'1 2.8 080 / 161017.010.8 1.525.1 23.4
2015-Aug-21 14:33N 36°42' E 000°43'10 9.6
2015-Aug-21 13:33N 36°41' E 000°32'9 9.2
2015-Aug-21 12:33N 36°39' E 000°20'9 9.1
2015-Aug-21 11:33N 36°37' E 000°09'18 8.9
2015-Aug-21 09:32N 36°33' W 000°12'8 8.1
2015-Aug-21 08:33N 36°31' W 000°22'12 8.3
2015-Aug-21 07:07N 36°29' W 000°36'7 8.3
2015-Aug-21 06:17N 36°28' W 000°45'27 8.2
2015-Aug-21 03:00N 36°24' W 001°18'94 7.8 050 / 161018.510.8 1.526.4 27.1
2015-Aug-20 15:00N 36°06' W 003°12'83 9.2 080 / 101018.110.8 1.524.8 21.1
2015-Aug-20 06:00N 36°00' W 004°54'88 5.8 080 / 91018.510.8 1.023.0 22.4
2015-Aug-19 15:00N 35°54' W 006°42'715.4 290 / 101015.510.8 1.023.0 21.5
2015-Aug-19 14:32N 35°59' W 006°47'46 7.7
2015-Aug-19 08:33N 36°08' W 007°43'8 7.8
2015-Aug-19 07:33N 36°09' W 007°53'8 7.5
2015-Aug-19 06:32N 36°11' W 008°02'  

Dump ship's entire track history